Bern, Kansas
Current Conditions -  °F | °C
As of 7:53 PM on Monday 24 Nov 2014 (Local Time) from KFNB Reporting Station
Clear Clear  
Wind Chill: 19°   Ceiling: Unl
Heat Index: 29°   Visibility: 10mi
Dew Point: 13°   Wind: 12mph
Humidity: 51%   Direction: 290°WNW
Pressure: 30.01"   Gusts: NA
Location:  39.96°N, 95.97°W
Report Text: KFNB 250153Z AUTO 29010KT 10SM CLR M02/M11 A3001 RMK AO2 SLP171 T10171106
Loading
Personal Weather Stations






























Interactive Weather Map New forecast layout! Learn more

10-Day Weather Forecast

Advertisements
Track Severe Weather on mobile